Time;durP1;ratioP1;P1;durP2;ratioP2;P2;SDS_P1;SDS_P2;PMS_P1;PMS_P2;Temp;Humidity;BMP_temperature;BMP_pressure;BME280_temperature;BME280_humidity;BME280_pressure;Samples;Min_cycle;Max_cycle;Signal;HPM_P1;HPM_P2
2023/03/11 00:00:25;;;;;;;28.27;19.23;;;282.50;2278.40;;;;;;5032816;28;20028;-77
2023/03/11 00:02:53;;;;;;;28.55;19.83;;;282.40;2278.40;;;;;;5032545;28;20513;-78
2023/03/11 00:05:23;;;;;;;28.90;18.73;;;282.30;2278.40;;;;;;5033325;28;20022;-76
2023/03/11 00:07:49;;;;;;;20.85;14.43;;;282.30;2278.40;;;;;;5034727;28;20091;-76
2023/03/11 00:10:19;;;;;;;19.75;13.80;;;282.20;2201.60;;;;;;5033544;28;20026;-79
2023/03/11 00:12:44;;;;;;;18.15;11.73;;;282.20;2252.80;;;;;;5033502;28;20021;-78
2023/03/11 00:15:11;;;;;;;25.60;15.57;;;282.20;2278.40;;;;;;5033494;28;20036;-78
2023/03/11 00:17:37;;;;;;;36.67;19.65;;;282.30;2278.40;;;;;;5035467;28;20036;-77
2023/03/11 00:20:05;;;;;;;40.70;25.67;;;282.10;2278.40;;;;;;5052743;28;20071;-79
2023/03/11 00:22:32;;;;;;;44.30;30.10;;;282.30;2278.40;;;;;;5053159;28;20036;-78
2023/03/11 00:24:57;;;;;;;44.33;28.08;;;282.30;2278.40;;;;;;5053516;28;20112;-77
2023/03/11 00:27:23;;;;;;;65.80;44.45;;;282.40;2278.40;;;;;;5049466;28;20522;-79
2023/03/11 00:29:49;;;;;;;194.45;100.45;;;282.40;2278.40;;;;;;5032357;28;20033;-78
2023/03/11 00:32:15;;;;;;;143.65;75.78;;;282.40;2278.40;;;;;;5033422;28;20631;-78
2023/03/11 00:34:41;;;;;;;91.50;48.63;;;282.40;2278.40;;;;;;5033098;28;20022;-78
2023/03/11 00:37:07;;;;;;;67.97;41.30;;;282.40;2278.40;;;;;;5034395;28;20029;-78
2023/03/11 00:39:33;;;;;;;66.07;41.45;;;282.40;2278.40;;;;;;5033297;28;20021;-80
2023/03/11 00:41:59;;;;;;;60.30;37.50;;;282.40;2278.40;;;;;;5034061;28;20026;-79
2023/03/11 00:44:25;;;;;;;48.63;34.20;;;282.20;2278.40;;;;;;5034257;28;20402;-77
2023/03/11 00:46:51;;;;;;;53.40;33.47;;;282.30;2278.40;;;;;;5032790;28;20057;-78
2023/03/11 00:49:16;;;;;;;86.13;54.75;;;282.30;2278.40;;;;;;5033038;28;20087;-77
2023/03/11 00:51:43;;;;;;;107.07;65.10;;;282.30;2278.40;;;;;;5032962;28;20124;-77
2023/03/11 00:54:09;;;;;;;79.72;51.00;;;282.40;2278.40;;;;;;5033082;28;20061;-77
2023/03/11 00:56:35;;;;;;;68.90;46.33;;;282.50;2278.40;;;;;;5033121;28;20041;-79
2023/03/11 00:59:01;;;;;;;58.55;40.80;;;282.20;2278.40;;;;;;5049367;28;20033;-76
2023/03/11 01:01:26;;;;;;;51.58;35.45;;;282.10;2073.60;;;;;;5058013;28;20010;-76
2023/03/11 01:03:52;;;;;;;66.40;45.28;;;282.20;2278.40;;;;;;5060955;28;20112;-80
2023/03/11 01:06:18;;;;;;;75.28;51.30;;;282.20;2278.40;;;;;;5033994;28;20052;-79
2023/03/11 01:08:43;;;;;;;66.95;45.67;;;282.30;2278.40;;;;;;5034265;28;20479;-78
2023/03/11 01:11:09;;;;;;;46.15;34.58;;;282.10;2278.40;;;;;;5034094;28;20048;-79
2023/03/11 01:13:35;;;;;;;53.25;36.20;;;282.10;1945.60;;;;;;5032641;28;20080;-80
2023/03/11 01:16:01;;;;;;;56.00;40.33;;;282.20;1894.40;;;;;;5032634;28;20029;-81
2023/03/11 01:18:28;;;;;;;73.32;45.70;;;282.20;2278.40;;;;;;5032502;28;20056;-78
2023/03/11 01:20:54;;;;;;;119.35;63.40;;;282.10;2278.40;;;;;;5032515;28;20030;-79
2023/03/11 01:23:20;;;;;;;82.25;48.90;;;282.30;2278.40;;;;;;5032583;28;20029;-77
2023/03/11 01:25:46;;;;;;;66.18;42.67;;;282.40;2278.40;;;;;;5032243;28;20120;-80
2023/03/11 01:28:12;;;;;;;42.97;28.85;;;282.30;2278.40;;;;;;5049167;28;20191;-78
2023/03/11 01:30:39;;;;;;;38.78;25.50;;;282.20;2278.40;;;;;;5033572;28;20032;-79
2023/03/11 01:33:06;;;;;;;31.75;21.80;;;282.20;2278.40;;;;;;5032359;28;20025;-78
2023/03/11 01:35:32;;;;;;;50.05;34.15;;;282.30;2278.40;;;;;;5032426;28;20526;-78
2023/03/11 01:37:58;;;;;;;53.58;37.35;;;282.30;2278.40;;;;;;5032340;28;20125;-77
2023/03/11 01:40:34;;;;;;;53.28;37.45;;;282.30;2278.40;;;;;;5048834;28;20462;-77
2023/03/11 01:43:02;;;;;;;66.25;40.80;;;282.30;2278.40;;;;;;5032423;28;20029;-79
2023/03/11 01:46:01;;;;;;;74.50;48.80;;;282.30;2278.40;;;;;;5033722;28;20033;-78
2023/03/11 01:48:27;;;;;;;66.35;43.70;;;282.20;2278.40;;;;;;5031976;28;20049;-77
2023/03/11 01:50:53;;;;;;;55.63;36.45;;;282.20;2278.40;;;;;;5033422;28;20025;-79
2023/03/11 01:53:20;;;;;;;52.42;33.30;;;282.20;2278.40;;;;;;5032154;28;20026;-79
2023/03/11 01:55:47;;;;;;;52.47;33.03;;;282.20;2278.40;;;;;;5032047;28;20025;-78
2023/03/11 01:58:36;;;;;;;55.17;35.33;;;282.30;2278.40;;;;;;5032072;28;20566;-79
2023/03/11 02:01:03;;;;;;;53.92;33.75;;;282.30;2278.40;;;;;;5033277;28;20022;-78
2023/03/11 02:03:32;;;;;;;30.83;22.27;;;282.30;2278.40;;;;;;5032170;28;20030;-79
2023/03/11 02:06:01;;;;;;;23.80;15.55;;;282.40;2278.40;;;;;;5031957;28;20549;-78
2023/03/11 02:08:28;;;;;;;19.15;11.82;;;282.40;2278.40;;;;;;5033157;28;20054;-77
2023/03/11 02:10:56;;;;;;;12.95;8.57;;;282.30;2278.40;;;;;;5032116;28;20065;-78
2023/03/11 02:13:22;;;;;;;15.27;8.75;;;282.30;2278.40;;;;;;5033376;28;20051;-78
2023/03/11 02:15:48;;;;;;;15.07;8.02;;;282.20;2278.40;;;;;;5035823;28;20489;-80
2023/03/11 02:18:17;;;;;;;14.98;6.97;;;282.20;2278.40;;;;;;5035857;28;20022;-78
2023/03/11 02:20:47;;;;;;;9.70;6.03;;;282.30;2278.40;;;;;;5035837;28;20021;-78
2023/03/11 02:23:15;;;;;;;15.93;7.28;;;282.30;2278.40;;;;;;5035630;28;20120;-78
2023/03/11 02:25:45;;;;;;;10.10;5.00;;;282.30;2278.40;;;;;;5035765;28;20037;-79
2023/03/11 02:28:13;;;;;;;14.10;6.43;;;282.20;2278.40;;;;;;5035604;28;20022;-78
2023/03/11 02:30:42;;;;;;;18.27;6.93;;;282.30;2278.40;;;;;;5035444;28;20025;-77
2023/03/11 02:33:09;;;;;;;14.55;6.00;;;282.30;2278.40;;;;;;5036363;28;20410;-78
2023/03/11 02:35:35;;;;;;;14.32;7.53;;;282.30;2278.40;;;;;;5035524;28;20462;-80
2023/03/11 02:38:01;;;;;;;19.90;12.80;;;282.30;2278.40;;;;;;5035461;28;20057;-78
2023/03/11 02:40:34;;;;;;;24.92;15.02;;;282.30;2278.40;;;;;;5036792;28;20060;-78
2023/03/11 02:43:12;;;;;;;27.23;14.43;;;282.40;2278.40;;;;;;5036777;28;20079;-78
2023/03/11 02:45:38;;;;;;;26.20;14.40;;;282.50;2278.40;;;;;;5035469;28;20060;-80
2023/03/11 02:48:07;;;;;;;34.92;20.20;;;282.30;2278.40;;;;;;5035271;28;20022;-78
2023/03/11 02:50:36;;;;;;;21.38;15.15;;;282.20;2278.40;;;;;;5039616;28;20033;-80
2023/03/11 02:53:03;;;;;;;25.67;17.98;;;282.00;2278.40;;;;;;5034860;28;20051;-78
2023/03/11 02:55:29;;;;;;;26.80;18.67;;;282.00;2278.40;;;;;;5035393;28;20029;-79
2023/03/11 02:57:54;;;;;;;34.42;21.10;;;282.00;2278.40;;;;;;5035047;28;20116;-77
2023/03/11 03:00:20;;;;;;;33.97;20.77;;;282.10;2278.40;;;;;;5035030;28;20149;-78
2023/03/11 03:02:50;;;;;;;30.58;21.00;;;282.20;2278.40;;;;;;5034997;28;20033;-77
2023/03/11 03:05:17;;;;;;;37.85;21.98;;;307.40;2304.00;;;;;;5035970;28;20026;-79
2023/03/11 03:07:43;;;;;;;64.20;36.90;;;282.40;2278.40;;;;;;5034764;28;20084;-78
2023/03/11 03:10:09;;;;;;;27.35;18.13;;;282.40;2278.40;;;;;;5036222;28;20049;-80
2023/03/11 03:12:35;;;;;;;24.20;14.98;;;282.40;2278.40;;;;;;5035542;28;20026;-78
2023/03/11 03:15:01;;;;;;;17.85;11.63;;;282.10;2278.40;;;;;;5053545;28;20470;-78
2023/03/11 03:17:26;;;;;;;19.80;11.93;;;282.20;2278.40;;;;;;5054195;28;20490;-77
2023/03/11 03:19:52;;;;;;;20.15;14.60;;;282.20;2278.40;;;;;;5055452;28;20025;-77
2023/03/11 03:22:18;;;;;;;20.35;12.85;;;282.20;2278.40;;;;;;5054519;28;20032;-76
2023/03/11 03:24:43;;;;;;;17.08;11.90;;;282.10;2278.40;;;;;;5053155;28;20475;-77
2023/03/11 03:27:09;;;;;;;29.52;17.75;;;282.10;2278.40;;;;;;5055315;28;20033;-78
2023/03/11 03:29:35;;;;;;;29.02;19.13;;;282.00;2278.40;;;;;;5049222;28;20034;-77
2023/03/11 03:32:00;;;;;;;35.53;26.98;;;282.00;2278.40;;;;;;5033875;28;20036;-79
2023/03/11 03:34:26;;;;;;;30.00;21.45;;;282.00;2278.40;;;;;;5033766;28;20033;-78
2023/03/11 03:36:52;;;;;;;32.25;22.10;;;282.20;2278.40;;;;;;5034261;28;20040;-80
2023/03/11 03:39:18;;;;;;;34.10;21.65;;;282.20;2278.40;;;;;;5034240;28;20029;-80
2023/03/11 03:41:44;;;;;;;39.28;22.92;;;282.30;2278.40;;;;;;5035488;28;20052;-81
2023/03/11 03:44:10;;;;;;;24.83;16.55;;;282.20;2278.40;;;;;;5034172;28;20074;-80
2023/03/11 03:46:37;;;;;;;25.10;16.73;;;282.30;2278.40;;;;;;5035236;28;20033;-80
2023/03/11 03:49:03;;;;;;;25.70;18.65;;;282.30;2278.40;;;;;;5034126;28;20072;-80
2023/03/11 03:51:28;;;;;;;20.90;15.63;;;282.30;2278.40;;;;;;5034082;28;20065;-79
2023/03/11 03:53:54;;;;;;;20.63;12.45;;;282.20;2278.40;;;;;;5033997;28;20026;-78
2023/03/11 03:56:20;;;;;;;21.65;13.13;;;282.30;2278.40;;;;;;5033948;28;20029;-80
2023/03/11 03:58:46;;;;;;;30.77;16.88;;;282.30;2278.40;;;;;;5035311;28;20088;-80
2023/03/11 04:01:13;;;;;;;26.42;15.75;;;282.20;2278.40;;;;;;5033557;28;20045;-80
2023/03/11 04:03:39;;;;;;;25.40;18.58;;;282.10;2278.40;;;;;;5033863;28;20030;-79
2023/03/11 04:06:13;;;;;;;22.70;16.23;;;282.00;2278.40;;;;;;5034953;28;20037;-78
2023/03/11 04:08:39;;;;;;;21.58;11.68;;;282.20;2278.40;;;;;;5034637;28;20050;-77
2023/03/11 04:11:05;;;;;;;17.25;11.88;;;282.20;2278.40;;;;;;5033384;28;20059;-77
2023/03/11 04:13:31;;;;;;;16.27;11.75;;;282.10;2278.40;;;;;;5033485;28;20030;-76
2023/03/11 04:15:57;;;;;;;14.60;10.43;;;282.10;2278.40;;;;;;5033693;28;20387;-78
2023/03/11 04:18:23;;;;;;;13.40;9.25;;;282.10;2278.40;;;;;;5033581;28;20038;-78
2023/03/11 04:20:49;;;;;;;11.40;7.90;;;282.00;2278.40;;;;;;5033556;28;20061;-78
2023/03/11 04:23:14;;;;;;;12.95;8.73;;;282.10;2278.40;;;;;;5033663;28;20065;-78
2023/03/11 04:25:40;;;;;;;16.38;11.23;;;282.10;2278.40;;;;;;5033189;28;20028;-79
2023/03/11 04:28:06;;;;;;;11.30;9.25;;;282.10;2278.40;;;;;;5033352;28;20051;-79
2023/03/11 04:30:32;;;;;;;12.30;7.88;;;282.10;2278.40;;;;;;5033460;28;20041;-81
2023/03/11 04:32:57;;;;;;;16.17;9.70;;;282.10;2278.40;;;;;;5033445;28;20029;-78
2023/03/11 04:35:23;;;;;;;10.63;8.43;;;282.00;2278.40;;;;;;5032692;28;20028;-79
2023/03/11 04:37:49;;;;;;;15.35;11.13;;;281.90;2278.40;;;;;;5033185;28;20037;-79
2023/03/11 04:40:15;;;;;;;13.18;9.30;;;281.90;2201.60;;;;;;5034454;28;20060;-80
2023/03/11 04:42:40;;;;;;;17.17;12.20;;;282.00;2278.40;;;;;;5034260;28;20040;-79
2023/03/11 04:45:07;;;;;;;24.35;13.27;;;282.10;2278.40;;;;;;5033135;28;20112;-80
2023/03/11 04:47:34;;;;;;;19.05;12.77;;;282.00;2278.40;;;;;;5032693;28;20029;-80
2023/03/11 04:49:59;;;;;;;18.63;13.00;;;282.00;2278.40;;;;;;5036651;28;20493;-79
2023/03/11 04:52:25;;;;;;;16.48;11.93;;;282.00;2278.40;;;;;;5053382;28;20021;-80
2023/03/11 04:54:51;;;;;;;17.42;10.55;;;281.90;2278.40;;;;;;5051984;28;20025;-80
2023/03/11 04:57:16;;;;;;;25.33;14.32;;;281.90;2278.40;;;;;;5052783;28;20032;-80
2023/03/11 04:59:42;;;;;;;23.75;15.30;;;281.90;2278.40;;;;;;5052809;28;20052;-78
2023/03/11 05:02:08;;;;;;;19.67;14.77;;;282.00;2278.40;;;;;;5052823;28;20029;-80
2023/03/11 05:04:33;;;;;;;19.30;13.57;;;281.90;2278.40;;;;;;5052569;28;20025;-80
2023/03/11 05:06:59;;;;;;;16.92;11.70;;;282.00;2278.40;;;;;;5052487;28;20032;-79
2023/03/11 05:09:25;;;;;;;12.93;9.45;;;282.00;2278.40;;;;;;5054069;28;20041;-81
2023/03/11 05:11:51;;;;;;;12.35;9.15;;;282.10;2278.40;;;;;;5052638;28;20083;-80
2023/03/11 05:14:16;;;;;;;26.50;16.65;;;282.00;2278.40;;;;;;5068932;28;20029;-80
2023/03/11 05:16:42;;;;;;;31.02;20.02;;;281.80;2278.40;;;;;;5052367;28;20063;-79
2023/03/11 05:21:52;;;;;;;34.63;25.80;;;281.80;2278.40;;;;;;5053547;28;20078;-81
2023/03/11 05:24:18;;;;;;;28.30;20.33;;;281.80;2278.40;;;;;;5053396;28;20105;-81
2023/03/11 05:26:44;;;;;;;27.38;20.50;;;281.80;2278.40;;;;;;5052329;28;20534;-79
2023/03/11 05:29:10;;;;;;;21.00;14.98;;;282.00;2278.40;;;;;;5052362;28;20171;-80
2023/03/11 05:31:36;;;;;;;15.88;11.88;;;281.90;2278.40;;;;;;5052005;28;20071;-81
2023/03/11 05:34:02;;;;;;;12.88;9.20;;;281.90;2278.40;;;;;;5052356;28;20029;-77
2023/03/11 05:36:28;;;;;;;16.42;11.40;;;282.00;2278.40;;;;;;5052333;28;20040;-79
2023/03/11 05:38:53;;;;;;;16.13;12.15;;;282.00;2278.40;;;;;;5052174;28;20120;-80
2023/03/11 05:41:19;;;;;;;24.02;17.90;;;281.90;2278.40;;;;;;5053414;28;20060;-79
2023/03/11 05:43:45;;;;;;;33.25;24.92;;;281.70;2278.40;;;;;;5052196;28;20481;-79
2023/03/11 05:46:11;;;;;;;32.22;23.80;;;281.70;2278.40;;;;;;5052937;28;20126;-79
2023/03/11 05:48:37;;;;;;;37.45;28.65;;;281.70;2278.40;;;;;;5054079;28;20459;-79
2023/03/11 05:51:08;;;;;;;38.33;29.92;;;281.70;2278.40;;;;;;5056368;28;20108;-80
2023/03/11 05:53:34;;;;;;;68.13;49.22;;;281.70;2278.40;;;;;;5056143;28;20060;-79
2023/03/11 05:56:00;;;;;;;61.45;47.22;;;281.60;2278.40;;;;;;5056319;28;20071;-80
2023/03/11 05:58:31;;;;;;;41.35;32.25;;;281.80;2278.40;;;;;;5055937;28;20471;-77
2023/03/11 06:00:58;;;;;;;39.72;31.73;;;281.80;2278.40;;;;;;5056175;28;20021;-79
2023/03/11 06:03:24;;;;;;;46.65;37.85;;;281.80;2278.40;;;;;;5056126;28;20123;-79
2023/03/11 06:05:51;;;;;;;187.07;98.35;;;281.70;2278.40;;;;;;5057036;28;20029;-80
2023/03/11 06:08:18;;;;;;;247.70;175.70;;;281.70;1920.00;;;;;;5056969;28;20041;-78
2023/03/11 06:10:44;;;;;;;319.80;220.95;;;281.60;2278.40;;;;;;5055921;28;20471;-80
2023/03/11 06:13:10;;;;;;;127.65;94.90;;;281.60;2278.40;;;;;;5055595;28;20021;-80
2023/03/11 06:15:37;;;;;;;103.55;87.22;;;281.60;2278.40;;;;;;5056089;28;20025;-80
2023/03/11 06:18:03;;;;;;;78.68;68.75;;;281.80;2278.40;;;;;;5055957;28;20384;-80
2023/03/11 06:20:29;;;;;;;66.47;58.35;;;281.80;2278.40;;;;;;5055606;28;20025;-81
2023/03/11 06:22:55;;;;;;;51.58;42.53;;;282.00;2278.40;;;;;;5055780;28;20032;-78
2023/03/11 06:25:20;;;;;;;54.10;43.97;;;282.00;2278.40;;;;;;5056774;28;20439;-79
2023/03/11 06:27:52;;;;;;;44.85;38.13;;;282.00;2278.40;;;;;;5054447;28;20399;-80
2023/03/11 06:30:18;;;;;;;46.67;37.90;;;282.00;2278.40;;;;;;5054585;28;20116;-80
2023/03/11 06:32:47;;;;;;;52.65;44.28;;;282.10;2278.40;;;;;;5054670;28;20029;-79
2023/03/11 06:35:13;;;;;;;45.85;38.65;;;282.10;2278.40;;;;;;5055354;28;20052;-79
2023/03/11 06:37:39;;;;;;;50.50;42.88;;;282.10;2278.40;;;;;;5055321;28;20497;-80
2023/03/11 06:40:07;;;;;;;47.75;39.42;;;282.10;2278.40;;;;;;5056723;28;20052;-79
2023/03/11 06:42:33;;;;;;;48.25;40.03;;;282.10;2278.40;;;;;;5055168;28;20032;-78
2023/03/11 06:44:59;;;;;;;48.85;42.65;;;282.10;2278.40;;;;;;5055262;28;20029;-78
2023/03/11 06:47:25;;;;;;;50.20;42.20;;;282.10;2278.40;;;;;;5056109;28;20059;-78
2023/03/11 06:49:52;;;;;;;42.38;36.42;;;282.00;2278.40;;;;;;5054933;28;20032;-79
2023/03/11 06:52:18;;;;;;;41.20;33.92;;;282.20;2278.40;;;;;;5056392;28;20128;-78
2023/03/11 06:54:44;;;;;;;37.90;33.80;;;282.20;2278.40;;;;;;5055023;28;20029;-79
2023/03/11 06:57:10;;;;;;;35.22;30.15;;;282.30;2278.40;;;;;;5055193;28;20028;-79
2023/03/11 06:59:37;;;;;;;47.72;36.60;;;282.40;2278.40;;;;;;5054694;28;20024;-79
2023/03/11 07:02:04;;;;;;;44.25;37.75;;;282.40;2278.40;;;;;;5054957;28;20422;-79
2023/03/11 07:04:31;;;;;;;45.53;36.70;;;282.40;2278.40;;;;;;5055089;28;20032;-80
2023/03/11 07:06:57;;;;;;;40.00;31.80;;;282.50;2278.40;;;;;;5054687;28;20128;-79
2023/03/11 07:09:24;;;;;;;38.65;32.88;;;307.20;2304.00;;;;;;5054657;28;20071;-77
2023/03/11 07:11:51;;;;;;;51.47;42.95;;;307.30;2304.00;;;;;;5054835;28;20109;-78
2023/03/11 07:14:18;;;;;;;47.08;37.58;;;307.30;2304.00;;;;;;5056392;28;20067;-75
2023/03/11 07:16:44;;;;;;;45.75;37.30;;;307.40;2304.00;;;;;;5054852;28;20040;-78
2023/03/11 07:19:10;;;;;;;38.90;31.92;;;307.50;2304.00;;;;;;5054875;28;20025;-78
2023/03/11 07:21:37;;;;;;;34.92;24.58;;;307.40;2304.00;;;;;;5055778;28;20025;-78
2023/03/11 07:24:04;;;;;;;31.30;23.38;;;307.60;2304.00;;;;;;5054565;28;20382;-78
2023/03/11 07:26:31;;;;;;;24.98;20.77;;;307.80;2304.00;;;;;;5054492;28;20470;-78
2023/03/11 07:28:57;;;;;;;35.58;30.67;;;307.90;2304.00;;;;;;5054908;28;20025;-78
2023/03/11 07:31:26;;;;;;;27.40;20.98;;;308.00;2304.00;;;;;;5054544;28;20021;-80
2023/03/11 07:33:52;;;;;;;20.27;16.88;;;308.00;2304.00;;;;;;5073447;28;20009;-81
2023/03/11 07:36:21;;;;;;;18.65;15.65;;;308.10;2304.00;;;;;;5078870;28;20025;-78
2023/03/11 07:38:47;;;;;;;22.02;16.95;;;308.10;2304.00;;;;;;5079727;28;20041;-78
2023/03/11 07:41:14;;;;;;;21.10;16.88;;;332.80;2329.60;;;;;;5063261;28;20025;-78
2023/03/11 07:43:41;;;;;;;27.73;17.17;;;332.90;2329.60;;;;;;5056021;28;20021;-78
2023/03/11 07:46:15;;;;;;;18.38;13.27;;;332.90;2329.60;;;;;;5055018;28;20037;-77
2023/03/11 07:48:41;;;;;;;18.95;13.63;;;332.80;2329.60;;;;;;5055264;28;20032;-79
2023/03/11 07:51:18;;;;;;;17.17;14.05;;;333.10;2329.60;;;;;;5053500;28;20033;-79
2023/03/11 07:53:44;;;;;;;15.80;12.63;;;333.00;2329.60;;;;;;5053774;28;20063;-78
2023/03/11 07:56:12;;;;;;;18.67;13.98;;;333.00;2329.60;;;;;;5054561;28;20025;-79
2023/03/11 07:58:38;;;;;;;22.15;15.77;;;332.90;2329.60;;;;;;5043481;28;20036;-78
2023/03/11 08:01:16;;;;;;;17.60;15.10;;;333.10;2329.60;;;;;;5033662;28;20467;-78
2023/03/11 08:03:43;;;;;;;17.67;14.68;;;333.20;2329.60;;;;;;5033295;28;20057;-78
2023/03/11 08:06:13;;;;;;;18.88;16.25;;;333.30;2329.60;;;;;;5033619;28;20087;-78
2023/03/11 08:08:39;;;;;;;18.30;14.43;;;333.40;2329.60;;;;;;5033646;28;20050;-77
2023/03/11 08:11:06;;;;;;;23.85;18.02;;;333.50;2329.60;;;;;;5033297;28;20029;-79
2023/03/11 08:13:32;;;;;;;22.15;17.92;;;333.60;2329.60;;;;;;5034938;28;20075;-79
2023/03/11 08:15:57;;;;;;;25.40;18.00;;;333.70;2329.60;;;;;;5033601;28;20120;-78
2023/03/11 08:18:23;;;;;;;26.17;19.02;;;358.40;2329.60;;;;;;5033576;28;20117;-79
2023/03/11 08:20:49;;;;;;;13.00;10.35;;;333.70;2329.60;;;;;;5033640;28;20037;-79
2023/03/11 08:23:15;;;;;;;12.07;8.10;;;333.70;2329.60;;;;;;5033601;28;20558;-79
2023/03/11 08:25:41;;;;;;;12.63;7.60;;;333.60;2329.60;;;;;;5049967;28;20371;-78
2023/03/11 08:28:08;;;;;;;12.40;8.50;;;333.60;2329.60;;;;;;5050130;28;20467;-79
2023/03/11 08:30:34;;;;;;;11.63;7.75;;;333.60;2329.60;;;;;;5050014;28;20079;-79
2023/03/11 08:32:59;;;;;;;19.02;13.68;;;333.70;2329.60;;;;;;5049845;28;20100;-79
2023/03/11 08:35:25;;;;;;;25.63;14.65;;;358.40;2329.60;;;;;;5033326;28;20040;-79
2023/03/11 08:37:52;;;;;;;21.20;14.90;;;358.40;2329.60;;;;;;5033322;28;20372;-82
2023/03/11 08:40:18;;;;;;;19.80;13.38;;;358.50;2329.60;;;;;;5033322;28;20383;-79
2023/03/11 08:42:43;;;;;;;22.35;15.13;;;358.60;2329.60;;;;;;5034905;28;20577;-76
2023/03/11 08:45:10;;;;;;;16.85;12.70;;;358.60;2329.60;;;;;;5033151;28;20116;-77
2023/03/11 08:47:36;;;;;;;18.95;13.60;;;358.70;2329.60;;;;;;5044674;28;20397;-78
2023/03/11 08:50:11;;;;;;;20.13;15.45;;;358.80;2329.60;;;;;;5052885;28;20119;-79
2023/03/11 08:52:36;;;;;;;22.00;17.08;;;358.80;2329.60;;;;;;5037501;28;20028;-78
2023/03/11 08:55:03;;;;;;;24.17;18.63;;;358.80;2329.60;;;;;;5050083;28;20104;-75
2023/03/11 08:57:31;;;;;;;24.83;16.88;;;358.80;2329.60;;;;;;5038536;28;20469;-76
2023/03/11 08:59:57;;;;;;;26.45;16.23;;;359.00;2329.60;;;;;;5043719;28;20021;-75
2023/03/11 09:02:24;;;;;;;18.13;13.95;;;359.10;2329.60;;;;;;5045436;28;20079;-76
2023/03/11 09:04:50;;;;;;;16.95;12.10;;;359.10;2329.60;;;;;;5036432;28;20171;-76
2023/03/11 09:07:16;;;;;;;16.73;12.25;;;359.10;2329.60;;;;;;5041065;28;20498;-76
2023/03/11 09:09:42;;;;;;;12.93;9.07;;;359.20;2329.60;;;;;;5043127;28;20500;-75
2023/03/11 09:12:08;;;;;;;13.23;9.80;;;359.20;2329.60;;;;;;5053463;28;20033;-76
2023/03/11 09:14:36;;;;;;;15.73;11.23;;;359.20;2329.60;;;;;;5036935;28;20045;-75
2023/03/11 09:17:02;;;;;;;14.52;9.43;;;359.30;2329.60;;;;;;5050981;28;20032;-75
2023/03/11 09:19:28;;;;;;;14.45;9.32;;;384.00;2329.60;;;;;;5046067;28;20030;-77
2023/03/11 09:21:54;;;;;;;11.45;7.68;;;384.00;2329.60;;;;;;5041398;28;20087;-76
2023/03/11 09:24:19;;;;;;;10.35;4.53;;;384.10;2329.60;;;;;;5053307;28;20025;-75
2023/03/11 09:26:45;;;;;;;8.45;3.72;;;384.20;2329.60;;;;;;5035213;28;20033;-75
2023/03/11 09:29:11;;;;;;;11.90;4.65;;;384.30;2329.60;;;;;;5041856;28;20025;-76
2023/03/11 09:31:37;;;;;;;7.10;4.20;;;384.30;2329.60;;;;;;5045828;28;20115;-75
2023/03/11 09:34:03;;;;;;;10.02;5.72;;;384.40;2329.60;;;;;;5043051;28;20035;-75
2023/03/11 09:36:28;;;;;;;10.85;5.70;;;384.30;2329.60;;;;;;5051673;28;20033;-77
2023/03/11 09:38:54;;;;;;;9.48;5.50;;;384.40;2329.60;;;;;;5045908;28;20071;-76
2023/03/11 09:41:49;;;;;;;10.32;6.50;;;384.40;2329.60;;;;;;5036801;28;20029;-76
2023/03/11 09:44:29;;;;;;;7.72;3.72;;;384.40;2329.60;;;;;;5016634;28;20030;-76
2023/03/11 09:47:31;;;;;;;5.93;3.33;;;384.50;2329.60;;;;;;5035198;28;20044;-77
2023/03/11 09:50:14;;;;;;;7.70;5.05;;;384.70;2329.60;;;;;;5041623;28;20378;-76
2023/03/11 09:52:53;;;;;;;14.23;6.93;;;384.90;2329.60;;;;;;5048633;28;20116;-75
2023/03/11 09:55:42;;;;;;;17.13;11.30;;;409.70;2355.20;;;;;;5036511;28;20029;-76
2023/03/11 09:58:28;;;;;;;20.08;10.95;;;409.80;2355.20;;;;;;5052706;28;20032;-75
2023/03/11 10:00:54;;;;;;;13.40;8.00;;;409.70;2355.20;;;;;;5035140;28;20052;-75
2023/03/11 10:03:31;;;;;;;10.25;6.15;;;409.60;2355.20;;;;;;5046715;28;20064;-77
2023/03/11 10:06:36;;;;;;;26.83;15.25;;;409.60;2355.20;;;;;;5041710;28;20033;-77
2023/03/11 10:09:35;;;;;;;25.33;15.82;;;409.60;2355.20;;;;;;5013563;28;20129;-75
2023/03/11 10:12:59;;;;;;;17.90;10.90;;;384.90;2329.60;;;;;;5007040;28;20022;-78
2023/03/11 10:15:47;;;;;;;21.20;12.60;;;384.70;2329.60;;;;;;5004709;28;20036;-76
2023/03/11 10:18:34;;;;;;;26.10;16.35;;;384.50;2329.60;;;;;;5051484;28;20423;-77
2023/03/11 10:21:07;;;;;;;35.42;13.32;;;384.40;2329.60;;;;;;5034904;28;20030;-78
2023/03/11 10:23:53;;;;;;;19.15;9.95;;;384.20;2329.60;;;;;;5046272;28;20049;-76
2023/03/11 10:26:21;;;;;;;13.73;6.28;;;384.10;2329.60;;;;;;5044397;28;20071;-76
2023/03/11 10:29:06;;;;;;;16.48;9.27;;;384.00;2329.60;;;;;;5035843;28;20025;-78
2023/03/11 10:31:43;;;;;;;13.45;7.65;;;384.20;2329.60;;;;;;5044840;28;20375;-77
2023/03/11 10:34:23;;;;;;;10.45;6.65;;;384.20;2329.60;;;;;;5045404;28;20386;-77
2023/03/11 10:37:28;;;;;;;17.42;9.82;;;384.20;2329.60;;;;;;5038647;28;20080;-77
2023/03/11 10:39:55;;;;;;;18.02;10.18;;;384.40;2329.60;;;;;;5043891;28;20025;-75
2023/03/11 10:42:26;;;;;;;12.45;8.60;;;384.30;2329.60;;;;;;5044229;28;20036;-76
2023/03/11 10:44:52;;;;;;;13.52;8.85;;;384.30;2329.60;;;;;;5038509;28;20030;-77
2023/03/11 10:47:21;;;;;;;12.13;8.65;;;384.40;2329.60;;;;;;5050153;28;20029;-77
2023/03/11 10:49:47;;;;;;;16.98;10.40;;;384.20;2329.60;;;;;;5043459;28;20513;-76
2023/03/11 10:52:14;;;;;;;13.80;8.45;;;384.30;2329.60;;;;;;5050505;28;20021;-77
2023/03/11 10:54:46;;;;;;;21.35;13.73;;;384.20;2329.60;;;;;;5054516;28;20021;-76
2023/03/11 10:57:24;;;;;;;27.00;16.05;;;384.20;2329.60;;;;;;5035234;28;20087;-77
2023/03/11 10:59:55;;;;;;;17.05;10.65;;;384.10;2329.60;;;;;;5043624;28;20087;-76
2023/03/11 11:02:26;;;;;;;16.45;9.38;;;359.30;2329.60;;;;;;5054674;28;20021;-77
2023/03/11 11:05:13;;;;;;;15.63;9.50;;;359.00;2329.60;;;;;;5037886;28;20025;-76
2023/03/11 11:07:39;;;;;;;17.83;12.13;;;358.90;2329.60;;;;;;5046929;28;20125;-77
2023/03/11 11:10:16;;;;;;;25.10;15.98;;;358.80;2329.60;;;;;;5047078;28;20552;-75
2023/03/11 11:13:16;;;;;;;19.75;14.95;;;358.80;2329.60;;;;;;5038842;28;20025;-75
2023/03/11 11:16:03;;;;;;;16.92;11.57;;;358.70;2329.60;;;;;;5043591;28;20025;-78
2023/03/11 11:18:49;;;;;;;16.73;11.27;;;358.60;2329.60;;;;;;5054292;28;20021;-77
2023/03/11 11:21:38;;;;;;;19.45;12.35;;;358.60;2329.60;;;;;;5038665;28;20382;-78
2023/03/11 11:24:39;;;;;;;16.30;11.45;;;358.60;2329.60;;;;;;5055283;28;20032;-79
2023/03/11 11:27:15;;;;;;;22.40;15.25;;;358.50;2329.60;;;;;;5035121;28;20045;-79
2023/03/11 11:29:41;;;;;;;29.42;20.05;;;358.40;2329.60;;;;;;5046347;28;20026;-78
2023/03/11 11:32:26;;;;;;;26.77;17.80;;;358.40;2329.60;;;;;;5045416;28;20033;-79
2023/03/11 11:34:59;;;;;;;24.48;16.42;;;333.70;2329.60;;;;;;5037502;28;20025;-77
2023/03/11 11:37:30;;;;;;;19.55;12.00;;;333.70;2329.60;;;;;;5048856;28;20447;-77
2023/03/11 11:40:14;;;;;;;28.95;20.80;;;333.60;2329.60;;;;;;5044707;28;20490;-78
2023/03/11 11:42:47;;;;;;;17.83;11.63;;;333.50;2329.60;;;;;;5021496;28;20056;-80
2023/03/11 11:45:29;;;;;;;18.88;14.05;;;333.60;2329.60;;;;;;5053000;28;20017;-77
2023/03/11 11:47:59;;;;;;;15.02;10.45;;;333.50;2329.60;;;;;;5053731;28;20437;-76
2023/03/11 11:50:31;;;;;;;14.00;9.77;;;333.50;2329.60;;;;;;5046294;28;20090;-80
2023/03/11 11:53:02;;;;;;;;;;;333.50;2329.60;;;;;;5051934;28;20112;-77
2023/03/11 11:55:30;;;;;;;8.77;6.07;;;333.50;2329.60;;;;;;5052825;28;19905;-78
2023/03/11 11:57:56;;;;;;;11.85;7.75;;;333.30;2329.60;;;;;;5049799;28;20116;-76
2023/03/11 12:00:36;;;;;;;13.02;9.60;;;333.20;2329.60;;;;;;5047272;28;20025;-77
2023/03/11 12:03:17;;;;;;;13.60;7.90;;;333.10;2329.60;;;;;;5052785;28;20485;-80
2023/03/11 12:05:56;;;;;;;10.98;7.88;;;332.90;2329.60;;;;;;5052429;28;20032;-77
2023/03/11 12:08:29;;;;;;;9.23;5.57;;;308.10;2304.00;;;;;;5039506;28;20131;-78
2023/03/11 12:11:09;;;;;;;7.22;5.60;;;307.90;2304.00;;;;;;5049709;28;20088;-76
2023/03/11 12:13:59;;;;;;;6.90;4.93;;;307.70;2304.00;;;;;;5040103;28;20021;-77